Aérodrome :
LOGIN :

S'inscrire | Disclaimer

   EN    FR    IT 

 










Légende :    VFR   VFR Marginal   IFR   IFR Intensif   IFR Très Intensif
Visi : 
Plafond : 
>= 8 km
>= 3000ft
5 à 8 km
1000 à 3000 ft
1500m à 5 km
500 à 1000 ft
800 à 1500m
200 à 500 ft
< 800m
< 200 ft
Symboles :   Orages  Brouillard  Fortes neiges  Fortes précipitations  Vent > 20 kt
SIGMETs :   Divers  Orages  Givrage  Turbulence  Onde Orograph.  Cendres Volcan.







- Altitude de l'aérodrome : 776 ft
- Code IATA : RMS


ETAR - Ramstein Air Base

DERNIER METAR :
  • 180356Z 00000KT 9000 BR CLR 12/12 A3017 RMK AO2A SLP212 T01240124 $

METARs EXPIRÉS :
  • 180256Z AUTO 00000KT 9000 BR CLR 13/13 A3016 RMK AO2 SLP208 T01310131 51003 $
  • 180156Z 00000KT 9999 CLR 15/15 A3016 RMK AO2A SLP207 T01490149 $

TAF TAF ETAR
Valide du 18 à 02h jusqu'au 19 à 08h UTC


180201Z 1802/1908 35006KT 9999 SCT045 QNH3014INS
BECMG 1810/1811 31009KT 9999 FEW065 QNH3017INS
BECMG 1906/1907 VRB06KT 9999 SKC QNH3021INS TX27/1815Z TN13/1804Z
Pas de NOTAMs connus pour ce terrain.



MET'MAP, la Météo Aéronautique d'un coup d'oeil ! - Copyright ORBIFLY Décembre 2007 - Disclaimer

ORBIFLY MET'MAP TEAM :

Programmation & Développement : Alexandra Zaïnal
Conception & Développement : Baudouin d'Aumeries
Co-Programmation & Développement : Marc-Olivier Méhu
Soutien technique & logistique : Manuel Goepfert

Contact : metmap@orbifly.com




SOURCES & CREDITS :

   NOAA